Data for 10/09/2013

Time Sea-Level Adjusted Pressure Absolute Pressure Temperature Relative Humidity Dew Point   
(mb) (inHg) (mb) (inHg) (C) (F) (%) (C) (F)
00:05 1016 30 845 24.95 3.3 37.9 63 -3 26.5
00:10 1016 30 845 24.95 3.2 37.8 64 -2.9 26.8
00:15 1016 30 845 24.95 3 37.5 66 -2.7 27.1
00:20 1016 30 845 24.95 2.8 37 68 -2.6 27.3
00:25 1016 30 845 24.95 2.5 36.5 69 -2.5 27.4
00:30 1016 30 845 24.95 2.3 36.1 70 -2.6 27.3
00:35 1016 30 845 24.95 2.3 36.1 70 -2.6 27.3
00:40 1016 30 845 24.95 2.2 36 70 -2.7 27.2
00:45 1016 30 845 24.95 2.2 35.9 71 -2.6 27.3
00:50 1016 30 845 24.95 2 35.7 71 -2.7 27.1
00:55 1016 30 846 24.98 2 35.6 71 -2.7 27.1
01:00 1016 30 845 24.95 1.9 35.5 71 -2.8 26.9
01:05 1016 30 845 24.95 2 35.5 70 -2.9 26.8
01:10 1016 30 846 24.98 1.9 35.4 71 -2.8 26.9
01:15 1016 30 846 24.98 1.8 35.2 72 -2.8 27
01:20 1016 30 846 24.98 1.8 35.2 71 -3 26.6
01:25 1016 30 846 24.98 1.7 35.1 71 -3 26.7
01:30 1016 30 846 24.98 1.5 34.7 73 -2.8 26.9
01:35 1016 30 846 24.98 1.3 34.3 74 -2.9 26.8
01:40 1016 30 846 24.98 1.4 34.6 73 -3 26.7
01:45 1017 30.03 846 24.98 1.5 34.7 73 -2.8 27
01:50 1017 30.03 846 24.98 1.3 34.3 73 -2.9 26.7
01:55 1017 30.03 846 24.98 1.2 34.1 74 -2.9 26.7
02:00 1017 30.03 846 24.98 1.1 34 74 -3 26.5
02:05 1016 30 846 24.98 1.1 34 74 -3.1 26.5
02:10 1016 30 846 24.98 1 33.8 74 -3.1 26.3
02:15 1016 30 846 24.98 1.2 34.2 72 -3.3 26.1
02:20 1016 30 846 24.98 1.6 34.9 70 -3.3 26.1
02:25 1016 30 846 24.98 1.9 35.3 70 -3 26.6
02:30 1016 30 846 24.98 1.7 35 71 -3.1 26.5
02:35 1016 30 846 24.98 1.7 35 70 -3.1 26.3
02:40 1016 30 846 24.98 2 35.5 69 -3 26.5
02:45 1016 30 846 24.98 2.3 36.1 68 -3 26.7
02:50 1016 30 846 24.98 2.6 36.6 68 -2.8 26.9
02:55 1016 30 846 24.98 2.6 36.7 68 -2.7 27.1
03:00 1016 30 846 24.98 2.6 36.7 68 -2.7 27.2
03:05 1016 30 846 24.98 2.8 37.1 67 -2.6 27.2
03:10 1016 30 846 24.98 3.1 37.6 66 -2.6 27.3
03:15 1016 30 846 24.98 3.3 38 65 -2.5 27.4
03:20 1016 30 846 24.98 3.3 37.9 67 -2.4 27.8
03:25 1016 30 846 24.98 3.2 37.7 66 -2.4 27.6
03:30 1016 30 845 24.95 3.2 37.8 67 -2.4 27.7
03:35 1016 30 846 24.98 3.3 37.9 66 -2.5 27.5
03:40 1016 30 846 24.98 3.2 37.8 67 -2.2 28
03:45 1016 30 846 24.98 3 37.5 68 -2.4 27.7
03:50 1016 30 846 24.98 2.9 37.2 68 -2.4 27.7
03:55 1016 30 846 24.98 2.8 37 69 -2.3 27.8
04:00 1016 30 846 24.98 2.6 36.7 70 -2.4 27.7
04:05 1016 30 846 24.98 2.4 36.3 69 -2.8 26.9
04:10 1016 30 846 24.98 2.3 36.2 69 -2.8 27
04:15 1016 30 846 24.98 2.3 36.1 69 -2.8 27
04:20 1016 30 846 24.98 2.1 35.8 70 -2.8 27
04:25 1016 30 846 24.98 1.9 35.4 69 -3.2 26.3
04:30 1016 30 846 24.98 3.2 37.8 62 -3.3 26.1
04:35 1016 30 846 24.98 3.9 39.1 61 -2.9 26.7
04:40 1017 30.03 846 24.98 3.9 39 62 -2.8 27
04:45 1017 30.03 846 24.98 3.9 39 61 -2.9 26.8
04:50 1017 30.03 846 24.98 3.9 38.9 62 -2.8 27
04:55 1017 30.03 846 24.98 3.6 38.5 64 -2.5 27.5
05:00 1017 30.03 846 24.98 2.6 36.7 69 -2.6 27.3
05:05 1017 30.03 846 24.98 1.5 34.8 73 -2.8 27
05:10 1017 30.03 846 24.98 1 33.8 75 -3 26.6
05:15 1017 30.03 846 24.98 0.9 33.5 75 -3 26.5
05:20 1017 30.03 846 24.98 1 33.8 74 -3.2 26.3
05:25 1017 30.03 846 24.98 1.8 35.2 68 -3.5 25.7
05:30 1017 30.03 846 24.98 2.9 37.2 65 -3.1 26.4
05:35 1017 30.03 846 24.98 3.2 37.8 63 -3 26.5
05:40 1017 30.03 846 24.98 3.4 38.1 63 -2.9 26.7
05:45 1017 30.03 846 24.98 3.5 38.2 63 -2.9 26.8
05:50 1017 30.03 846 24.98 3.1 37.5 68 -2.3 27.9
05:55 1017 30.03 846 24.98 1.9 35.3 72 -2.7 27.2
06:00 1017 30.03 846 24.98 1.4 34.6 72 -3 26.5
06:05 1017 30.03 846 24.98 1.6 34.9 71 -3.1 26.5
06:10 1017 30.03 846 24.98 1.6 34.9 72 -2.8 26.9
06:15 1017 30.03 846 24.98 1.7 35.1 70 -3.1 26.4
06:20 1017 30.03 846 24.98 2 35.7 67 -3.5 25.7
06:25 1017 30.03 846 24.98 3 37.3 63 -3.3 26
06:30 1017 30.03 847 25.01 3.3 37.9 63 -3 26.5
06:35 1017 30.03 847 25.01 3.2 37.7 64 -2.9 26.7
06:40 1017 30.03 847 25.01 3.1 37.6 64 -3.1 26.5
06:45 1017 30.03 847 25.01 2.8 37 68 -2.6 27.4
06:50 1017 30.03 847 25.01 2.1 35.9 69 -3 26.6
06:55 1017 30.03 847 25.01 2.2 35.9 68 -3.1 26.4
07:00 1018 30.06 847 25.01 2.1 35.8 69 -3 26.7
07:05 1018 30.06 847 25.01 2.1 35.8 68 -3.1 26.4
07:10 1018 30.06 847 25.01 2.2 35.9 68 -3.1 26.4
07:15 1018 30.06 847 25.01 2.4 36.3 66 -3.2 26.2
07:20 1018 30.06 847 25.01 2.7 36.8 66 -3 26.6
07:25 1018 30.06 847 25.01 2.6 36.6 66 -3 26.5
07:30 1018 30.06 847 25.01 2.7 36.8 66 -3 26.5
07:35 1018 30.06 847 25.01 3 37.4 63 -3.3 26
07:40 1018 30.06 847 25.01 3.1 37.7 63 -3.2 26.2
07:45 1018 30.06 847 25.01 3.3 37.9 62 -3.3 26
07:50 1018 30.06 847 25.01 3.4 38.2 63 -3 26.6
07:55 1018 30.06 847 25.01 3.6 38.5 61 -3.3 26
08:00 1018 30.06 847 25.01 4.1 39.4 59 -3.2 26.2
08:05 1018 30.06 847 25.01 4.4 39.8 58 -3.2 26.3
08:10 1018 30.06 847 25.01 4.5 40.1 58 -3.1 26.4
08:15 1018 30.06 847 25.01 4.7 40.4 56 -3.2 26.2
08:20 1018 30.06 847 25.01 4.8 40.6 57 -3.1 26.5
08:25 1018 30.06 847 25.01 4.8 40.7 56 -3.2 26.3
08:30 1018 30.06 847 25.01 4.8 40.7 56 -3.2 26.3
08:35 1018 30.06 847 25.01 5 41.1 55 -3.4 26
08:40 1018 30.06 847 25.01 5.2 41.4 54 -3.3 26
08:45 1018 30.06 847 25.01 5.5 41.8 53 -3.4 25.9
08:50 1018 30.06 847 25.01 5.6 42.1 52 -3.4 25.9
08:55 1018 30.06 847 25.01 5.8 42.5 51 -3.5 25.6
09:00 1018 30.06 847 25.01 6.1 42.9 50 -3.6 25.5
09:05 1018 30.06 847 25.01 6.1 43 50 -3.4 25.8
09:10 1018 30.06 847 25.01 6.3 43.3 50 -3.4 25.8
09:15 1018 30.06 847 25.01 6.4 43.5 49 -3.5 25.7
09:20 1018 30.06 847 25.01 6.4 43.6 49 -3.5 25.6
09:25 1018 30.06 847 25.01 6.5 43.6 49 -3.4 25.8
09:30 1018 30.06 847 25.01 6.6 43.9 49 -3.4 25.9
09:35 1018 30.06 847 25.01 6.7 44.1 48 -3.6 25.5
09:40 1018 30.06 847 25.01 6.9 44.4 47 -3.7 25.3
09:45 1018 30.06 847 25.01 6.9 44.5 47 -3.6 25.5
09:50 1018 30.06 847 25.01 7.2 44.9 47 -3.4 25.9
09:55 1018 30.06 847 25.01 7.1 44.7 47 -3.4 25.9
10:00 1018 30.06 847 25.01 7.4 45.3 46 -3.4 25.8
10:05 1018 30.06 847 25.01 7.5 45.5 46 -3.5 25.8
10:10 1018 30.06 847 25.01 7.4 45.4 47 -3.2 26.2
10:15 1018 30.06 847 25.01 7.6 45.6 47 -3.1 26.5
10:20 1018 30.06 847 25.01 7.6 45.7 47 -3 26.5
10:25 1018 30.06 847 25.01 7.9 46.3 46 -3 26.6
10:30 1018 30.06 847 25.01 8.1 46.5 45 -3.1 26.3
10:35 1018 30.06 847 25.01 8.1 46.6 46 -2.9 26.7
10:40 1018 30.06 847 25.01 8 46.3 46 -2.9 26.7
10:45 1017 30.03 847 25.01 8.1 46.6 46 -2.7 27.2
10:50 1017 30.03 847 25.01 8.2 46.7 46 -2.8 27
10:55 1017 30.03 847 25.01 8.2 46.8 46 -2.7 27.2
11:00 1017 30.03 847 25.01 8.4 47.2 46 -2.6 27.3
11:05 1017 30.03 847 25.01 8.5 47.3 46 -2.6 27.4
11:10 1017 30.03 847 25.01 8.8 47.8 45 -2.3 27.8
11:15 1017 30.03 847 25.01 8.6 47.5 46 -2.2 28
11:20 1017 30.03 847 25.01 8.6 47.5 46 -2.2 28
11:25 1017 30.03 846 24.98 8.6 47.6 46 -2.2 28
11:30 1017 30.03 846 24.98 9 48.1 46 -2 28.4
11:35 1017 30.03 846 24.98 9 48.2 46 -2 28.3
11:40 1017 30.03 846 24.98 8.9 48.1 45 -2.2 28.1
11:45 1017 30.03 846 24.98 8.8 47.9 46 -2.1 28.2
11:50 1017 30.03 846 24.98 8.7 47.6 47 -2.1 28.2
11:55 1017 30.03 846 24.98 8.7 47.6 48 -1.8 28.8
12:00 1017 30.03 846 24.98 8.8 47.9 47 -1.9 28.5
12:05 1017 30.03 846 24.98 9.2 48.5 46 -1.8 28.8
12:10 1017 30.03 846 24.98 8.8 47.9 47 -1.9 28.6
12:15 1017 30.03 846 24.98 9.2 48.5 46 -1.8 28.8
12:20 1017 30.03 846 24.98 9.2 48.6 46 -1.7 28.9
12:25 1016 30 846 24.98 9 48.3 46 -2 28.5
12:30 1016 30 846 24.98 9.3 48.8 44 -2.1 28.2
12:35 1016 30 846 24.98 9 48.3 46 -1.9 28.6
12:40 1016 30 845 24.95 9.3 48.7 44 -2.2 28
12:45 1016 30 845 24.95 9.2 48.6 46 -1.8 28.8
12:50 1016 30 845 24.95 9.7 49.4 44 -1.8 28.7
12:55 1016 30 845 24.95 9.6 49.2 44 -1.9 28.5
13:00 1016 30 845 24.95 9.6 49.2 45 -1.7 28.9
13:05 1016 30 845 24.95 9.4 48.9 44 -2.3 27.9
13:10 1016 30 845 24.95 9.5 49.2 45 -1.9 28.6
13:15 1016 30 845 24.95 9.6 49.2 44 -2.2 28.1
13:20 1016 30 845 24.95 9.7 49.5 43 -2.1 28.1
13:25 1016 30 845 24.95 9.7 49.4 45 -1.6 29.1
13:30 1016 30 845 24.95 9.7 49.4 45 -1.7 29
13:35 1016 30 845 24.95 9.1 48.3 46 -1.8 28.7
13:40 1016 30 845 24.95 9.3 48.7 45 -2 28.4
13:45 1016 30 845 24.95 9.5 49.1 44 -2 28.4
13:50 1016 30 845 24.95 9.6 49.3 44 -2 28.4
13:55 1015 29.97 845 24.95 9.5 49.1 45 -1.9 28.6
14:00 1015 29.97 845 24.95 9.6 49.3 45 -1.7 29
14:05 1015 29.97 845 24.95 9.5 49.2 46 -1.5 29.3
14:10 1015 29.97 845 24.95 10 50 44 -1.6 29
14:15 1015 29.97 845 24.95 10.2 50.3 44 -1.4 29.5
14:20 1015 29.97 845 24.95 10.2 50.3 45 -1.3 29.7
14:25 1015 29.97 844 24.92 10.1 50.1 45 -1.3 29.7
14:30 1015 29.97 844 24.92 10 50.1 45 -1.2 29.9
14:35 1015 29.97 844 24.92 10.2 50.4 45 -1 30.1
14:40 1015 29.97 844 24.92 10.2 50.4 45 -1.1 30
14:45 1015 29.97 844 24.92 10.2 50.3 45 -1.3 29.6
14:50 1015 29.97 844 24.92 9.8 49.7 47 -1 30.2
14:55 1015 29.97 844 24.92 9.8 49.6 47 -1 30.2
15:00 1015 29.97 844 24.92 9.9 49.8 47 -0.8 30.6
15:05 1015 29.97 844 24.92 9.5 49.1 48 -0.9 30.3
15:10 1015 29.97 844 24.92 9.5 49.1 48 -0.9 30.5
15:15 1015 29.97 844 24.92 9.9 49.8 48 -0.7 30.8
15:20 1015 29.97 844 24.92 9.7 49.5 48 -0.6 30.9
15:25 1015 29.97 844 24.92 9.5 49.2 49 -0.7 30.7
15:30 1015 29.97 844 24.92 9.3 48.8 50 -0.6 30.9
15:35 1015 29.97 844 24.92 9.3 48.8 49 -0.8 30.5
15:40 1015 29.97 844 24.92 9.4 48.8 50 -0.6 30.9
15:45 1015 29.97 844 24.92 9.2 48.6 50 -0.5 31
15:50 1015 29.97 844 24.92 9.1 48.3 51 -0.5 31.1
15:55 1015 29.97 844 24.92 9 48.1 51 -0.5 31.2
16:00 1015 29.97 844 24.92 8.8 47.9 52 -0.4 31.3
16:05 1015 29.97 844 24.92 8.8 47.8 53 -0.3 31.4
16:10 1015 29.97 844 24.92 8.9 47.9 52 -0.3 31.4
16:15 1015 29.97 844 24.92 9.1 48.4 51 -0.4 31.3
16:20 1015 29.97 844 24.92 9.2 48.6 52 -0.2 31.7
16:25 1015 29.97 844 24.92 9.4 48.9 50 -0.4 31.2
16:30 1015 29.97 844 24.92 9.5 49.1 50 -0.3 31.5
16:35 1015 29.97 844 24.92 9.5 49.1 50 -0.3 31.4
16:40 1015 29.97 844 24.92 9.4 48.9 51 -0.2 31.7
16:45 1015 29.97 844 24.92 9.3 48.8 51 -0.3 31.4
16:50 1015 29.97 844 24.92 9.3 48.7 51 -0.2 31.7
16:55 1014 29.94 844 24.92 9.1 48.4 52 -0.3 31.5
17:00 1015 29.97 844 24.92 9 48.2 52 -0.3 31.5
17:05 1015 29.97 844 24.92 8.9 48 53 -0.2 31.6
17:10 1014 29.94 844 24.92 8.8 47.9 53 -0.2 31.7
17:15 1014 29.94 844 24.92 8.7 47.6 54 -0.1 31.9
17:20 1014 29.94 844 24.92 8.6 47.4 54 -0.1 31.9
17:20 1014 29.94 844 24.92 8.6 47.4 54 -0.1 31.9
17:25 1014 29.94 843 24.89 8.4 47 55 -0.2 31.7
17:30 1014 29.94 843 24.89 8.2 46.7 56 -0.1 31.8
17:35 1014 29.94 843 24.89 8 46.5 56 -0.1 31.8
17:40 1014 29.94 843 24.89 7.9 46.2 57 -0.1 31.9
17:45 1014 29.94 843 24.89 7.8 46 57 -0.1 31.8
17:50 1014 29.94 843 24.89 7.7 45.9 57 -0.1 31.7
17:55 1014 29.94 843 24.89 7.6 45.8 58 -0 31.9
18:00 1014 29.94 843 24.89 7.5 45.5 59 -0 32
18:05 1014 29.94 843 24.89 7.4 45.3 59 0 32
18:10 1014 29.94 843 24.89 7.3 45.2 59 -0.1 31.9
18:15 1014 29.94 843 24.89 7.3 45.2 59 -0 32
18:20 1014 29.94 843 24.89 7.3 45.1 60 0.1 32.1
18:25 1014 29.94 843 24.89 7.2 45 60 0.1 32.1
18:30 1014 29.94 843 24.89 7.2 44.9 61 0.1 32.2
18:35 1014 29.94 843 24.89 7.1 44.8 61 0.1 32.2
18:40 1014 29.94 843 24.89 7 44.7 61 0.1 32.3
18:45 1014 29.94 843 24.89 6.9 44.4 62 0.1 32.2
18:50 1014 29.94 843 24.89 6.8 44.3 62 0.1 32.2
18:55 1014 29.94 843 24.89 6.8 44.2 62 0.1 32.2
19:00 1014 29.94 843 24.89 6.8 44.2 63 0.2 32.3
19:05 1014 29.94 843 24.89 6.7 44.1 63 0.2 32.3
19:10 1014 29.94 843 24.89 6.7 44 63 0.1 32.2
19:15 1014 29.94 843 24.89 6.7 44 63 0.2 32.4
19:20 1014 29.94 843 24.89 6.6 43.9 64 0.2 32.4
19:25 1014 29.94 843 24.89 6.5 43.8 64 0.2 32.4
19:30 1014 29.94 843 24.89 6.5 43.7 64 0.2 32.3
19:35 1014 29.94 843 24.89 6.4 43.5 64 0.2 32.4
19:40 1014 29.94 843 24.89 6.3 43.4 64 0.1 32.3
19:45 1014 29.94 843 24.89 6.3 43.3 65 0.1 32.1
19:50 1014 29.94 843 24.89 6.3 43.3 64 0.1 32.1
19:55 1014 29.94 843 24.89 6.3 43.3 64 0.1 32.1
20:00 1014 29.94 843 24.89 6.2 43.2 65 0 32.1
20:05 1014 29.94 843 24.89 6.2 43.1 65 0.1 32.1
20:10 1014 29.94 843 24.89 6.1 42.9 65 -0 32
20:15 1014 29.94 843 24.89 5.9 42.6 66 -0.1 31.9
20:20 1014 29.94 843 24.89 5.8 42.4 66 -0.1 31.8
20:25 1014 29.94 843 24.89 5.8 42.4 66 -0.1 31.8
20:30 1014 29.94 843 24.89 5.7 42.3 66 -0.1 31.7
20:35 1014 29.94 843 24.89 5.7 42.2 66 -0.1 31.8
20:40 1014 29.94 843 24.89 5.6 42.2 66 -0.2 31.7
20:45 1014 29.94 843 24.89 5.6 42.2 66 -0.1 31.8
20:50 1014 29.94 843 24.89 5.5 41.9 67 -0.1 31.8
20:55 1014 29.94 843 24.89 5.3 41.6 68 -0.2 31.7
21:00 1014 29.94 843 24.89 5.3 41.5 68 -0.2 31.7
21:05 1014 29.94 843 24.89 5.2 41.4 68 -0.2 31.7
21:10 1014 29.94 843 24.89 5.2 41.3 68 -0.2 31.7
21:15 1014 29.94 843 24.89 5.1 41.2 68 -0.2 31.7
21:20 1014 29.94 843 24.89 5.1 41.2 69 -0.2 31.7
21:25 1014 29.94 843 24.89 5 40.9 69 -0.2 31.6
21:30 1014 29.94 843 24.89 4.9 40.8 69 -0.2 31.6
21:35 1014 29.94 843 24.89 4.9 40.9 69 -0.3 31.5
21:40 1014 29.94 843 24.89 4.9 40.9 69 -0.2 31.6
21:45 1014 29.94 843 24.89 4.7 40.4 71 -0.2 31.6
21:50 1014 29.94 843 24.89 4.6 40.2 71 -0.3 31.4
21:55 1014 29.94 843 24.89 4.6 40.2 71 -0.3 31.5
22:00 1014 29.94 843 24.89 4.6 40.2 71 -0.3 31.4
22:05 1014 29.94 843 24.89 4.6 40.3 71 -0.3 31.5
22:10 1014 29.94 843 24.89 4.5 40.1 71 -0.2 31.6
22:15 1014 29.94 843 24.89 4.4 40 71 -0.3 31.4
22:20 1014 29.94 843 24.89 4.4 39.9 72 -0.3 31.5
22:25 1014 29.94 843 24.89 4.3 39.7 72 -0.4 31.3
22:30 1014 29.94 843 24.89 4.2 39.6 72 -0.4 31.3
22:35 1014 29.94 843 24.89 4.2 39.6 72 -0.4 31.2
22:40 1014 29.94 843 24.89 4.3 39.8 72 -0.3 31.5
22:45 1014 29.94 843 24.89 4.4 39.9 72 -0.2 31.6
22:50 1014 29.94 843 24.89 4.3 39.8 73 -0.1 31.9
22:55 1014 29.94 843 24.89 4.2 39.5 74 -0.1 31.9
23:00 1014 29.94 843 24.89 4 39.1 75 -0.1 31.8
23:05 1014 29.94 843 24.89 3.7 38.7 75 -0.2 31.6
23:10 1014 29.94 843 24.89 3.5 38.4 76 -0.3 31.4
23:15 1014 29.94 843 24.89 3.4 38.1 76 -0.4 31.3
23:20 1014 29.94 843 24.89 3.5 38.2 76 -0.4 31.3
23:25 1014 29.94 843 24.89 3.4 38.2 76 -0.4 31.2
23:30 1014 29.94 843 24.89 3.5 38.2 76 -0.4 31.3
23:35 1014 29.94 843 24.89 3.4 38.2 76 -0.4 31.2
23:40 1013 29.91 843 24.89 3.6 38.5 75 -0.3 31.4
23:45 1013 29.91 843 24.89 3.5 38.2 76 -0.4 31.3
23:50 1013 29.91 843 24.89 3.4 38.2 76 -0.4 31.3
23:55 1013 29.91 842 24.86 3.3 38 77 -0.4 31.3
24:00 1013 29.91 842 24.86 3.2 37.7 78 -0.4 31.3